Estación Meteorológica Peña el Pijo (Robertgarden) [ 10/20/20 07:30:46 CEST ]

Fecha Hora Presion(HPa) Temp (°C) Humedad % Rocio (°C) Viento ( m/s) Direccion Lluvia 1Hora(mm) Lluvia 24H(mm) LLuvia Total(mm)
2020-Aug-31 04:09:42 1010.600 9.8 73 5.2 - N     89.61
2020-Aug-31 05:09:18 1010.500 8.9 72 4.1 - N     89.61
2020-Aug-31 06:09:16 1010.600 7.9 71 3.0 - N     89.61
2020-Aug-31 07:09:02 1010.800 7.6 71 2.7 - N     89.61
2020-Aug-31 08:10:04 1011.500 7.0 72 2.3 - N     89.61
2020-Aug-31 09:09:17 1011.800 14.2 59 6.3 - N     89.61
2020-Aug-31 10:09:03 1011.800 19.3 39 5.0 - N     89.61
2020-Aug-31 11:09:29 1011.900 23.7 34 6.8 - N     89.61
2020-Aug-31 12:09:20 1011.700 25.6 33 8.0 - N     89.61
2020-Aug-31 13:09:49 1011.300 26.4 34 9.2 - N     89.61
2020-Aug-31 14:09:20 1010.800 26.9 30 7.9 - N     89.61
2020-Aug-31 15:09:37 1010.200 27.1 28 6.9 - N     89.61
2020-Aug-31 16:09:54 1009.500 28.0 27 7.1 - N     89.61
2020-Aug-31 17:09:34 1009.000 27.3 29 7.7 - N     89.61
2020-Aug-31 18:09:44 1008.900 26.3 30 7.4 - N     89.61
2020-Aug-31 19:09:52 1008.800 25.1 35 8.5 - N     89.61
2020-Aug-31 20:09:35 1008.700 22.4 49 11.1 - N     89.61
2020-Aug-31 21:09:22 1009.000 20.2 58 11.6 - N     89.61
2020-Aug-31 22:09:18 1009.900 18.9 63 11.7 - N     89.61
2020-Aug-31 23:09:33 1010.100 16.8 68 10.9 - N     89.61

Temperatura Máxima:28°    Temperatura Mínima:
Presión Máxima:1011.900 Hpa    Presión Mínima:1008.700 Hpa


Volver